createdAt,value
2023-04-28T00:02:24.612Z,50.27
2023-04-28T00:04:53.104Z,50.30
2023-04-28T00:07:21.600Z,50.24
2023-04-28T00:09:49.625Z,50.41
2023-04-28T00:12:17.664Z,50.43
2023-04-28T00:14:45.734Z,50.35
2023-04-28T00:17:14.081Z,50.46
2023-04-28T00:19:42.348Z,50.33
2023-04-28T00:22:10.577Z,50.48
2023-04-28T00:24:38.686Z,50.54
2023-04-28T00:27:07.605Z,50.48
2023-04-28T00:29:36.882Z,50.64
2023-04-28T00:32:05.148Z,50.51
2023-04-28T00:34:34.432Z,50.56
2023-04-28T00:37:02.622Z,50.46
2023-04-28T00:39:30.815Z,50.64
2023-04-28T00:41:58.922Z,50.75
2023-04-28T00:44:27.205Z,50.85
2023-04-28T00:46:55.808Z,50.92
2023-04-28T00:49:23.867Z,50.92
2023-04-28T00:51:52.221Z,50.95
2023-04-28T00:54:20.481Z,50.94
2023-04-28T00:56:49.413Z,50.99
2023-04-28T00:59:17.632Z,51.09
2023-04-28T01:01:46.311Z,51.12
2023-04-28T01:04:16.573Z,51.09
2023-04-28T01:06:44.952Z,51.15
2023-04-28T01:09:13.304Z,51.22
2023-04-28T01:11:42.180Z,51.33
2023-04-28T01:14:18.081Z,51.37
2023-04-28T01:16:47.539Z,51.45
2023-04-28T01:19:22.791Z,51.35
2023-04-28T01:21:51.249Z,51.42
2023-04-28T01:24:23.499Z,51.58
2023-04-28T01:26:51.921Z,51.60
2023-04-28T01:29:19.978Z,51.68
2023-04-28T01:31:48.131Z,51.66
2023-04-28T01:34:16.500Z,51.76
2023-04-28T01:36:44.777Z,51.88
2023-04-28T01:39:12.922Z,51.71
2023-04-28T01:41:42.591Z,51.93
2023-04-28T01:44:11.971Z,51.84
2023-04-28T01:46:40.096Z,52.01
2023-04-28T01:49:08.274Z,51.99
2023-04-28T01:51:36.312Z,52.10
2023-04-28T01:54:04.452Z,52.02
2023-04-28T01:56:32.698Z,52.21
2023-04-28T01:59:01.836Z,52.25
2023-04-28T02:01:30.292Z,52.13
2023-04-28T02:03:58.657Z,52.13
2023-04-28T02:06:28.116Z,52.30
2023-04-28T02:08:58.569Z,52.45
2023-04-28T02:11:26.684Z,52.54
2023-04-28T02:13:57.941Z,52.40
2023-04-28T02:16:26.329Z,52.73
2023-04-28T02:18:54.419Z,52.71
2023-04-28T02:21:22.459Z,52.78
2023-04-28T02:23:51.192Z,52.69
2023-04-28T02:26:19.390Z,52.72
2023-04-28T02:28:49.155Z,52.88
2023-04-28T02:31:18.453Z,53.04
2023-04-28T02:33:48.122Z,52.98
2023-04-28T02:36:16.271Z,52.93
2023-04-28T02:38:45.159Z,53.01
2023-04-28T02:41:15.115Z,53.12
2023-04-28T02:43:43.860Z,53.08
2023-04-28T02:46:12.019Z,53.22
2023-04-28T02:48:40.968Z,53.18
2023-04-28T02:51:09.532Z,53.24
2023-04-28T02:53:37.725Z,53.38
2023-04-28T02:56:06.533Z,53.45
2023-04-28T02:58:35.248Z,53.49
2023-04-28T03:01:03.624Z,53.67
2023-04-28T03:03:31.908Z,53.59
2023-04-28T03:06:00.178Z,53.71
2023-04-28T03:08:28.419Z,53.70
2023-04-28T03:10:56.760Z,53.75
2023-04-28T03:13:25.558Z,53.78
2023-04-28T03:15:53.831Z,53.81
2023-04-28T03:18:23.450Z,53.91
2023-04-28T03:20:51.552Z,54.02
2023-04-28T03:23:21.149Z,53.93
2023-04-28T03:25:49.373Z,53.88
2023-04-28T03:28:17.479Z,54.14
2023-04-28T03:30:46.283Z,54.14
2023-04-28T03:33:14.357Z,54.30
2023-04-28T03:35:42.456Z,54.28
2023-04-28T03:38:10.686Z,54.27
2023-04-28T03:40:38.832Z,54.33
2023-04-28T03:43:13.105Z,54.26
2023-04-28T03:45:51.553Z,54.43
2023-04-28T03:48:19.852Z,54.53
2023-04-28T03:50:48.116Z,54.60
2023-04-28T03:53:17.433Z,54.64
2023-04-28T03:55:45.688Z,54.57
2023-04-28T03:58:14.015Z,54.66
2023-04-28T04:00:42.109Z,54.71
2023-04-28T04:03:10.551Z,54.65
2023-04-28T04:05:41.487Z,54.77
2023-04-28T04:08:09.622Z,54.84
2023-04-28T04:10:37.651Z,54.97
2023-04-28T04:13:05.739Z,54.83
2023-04-28T04:15:34.220Z,54.99
2023-04-28T04:18:02.886Z,54.93
2023-04-28T04:20:39.352Z,54.92
2023-04-28T04:23:08.056Z,54.94
2023-04-28T04:25:36.321Z,55.12
2023-04-28T04:28:05.219Z,55.19
2023-04-28T04:30:33.487Z,55.22
2023-04-28T04:33:01.991Z,55.28
2023-04-28T04:35:30.078Z,55.25
2023-04-28T04:37:58.366Z,55.19
2023-04-28T04:40:26.875Z,55.27
2023-04-28T04:42:56.772Z,55.21
2023-04-28T04:45:28.523Z,55.26
2023-04-28T04:47:58.199Z,55.45
2023-04-28T04:50:26.386Z,55.38
2023-04-28T04:52:57.474Z,55.47
2023-04-28T04:55:26.149Z,55.43
2023-04-28T04:57:54.389Z,55.50
2023-04-28T05:00:41.504Z,55.52
2023-04-28T05:03:10.675Z,55.41
2023-04-28T05:05:40.905Z,55.62
2023-04-28T05:08:21.758Z,55.68
2023-04-28T05:10:49.860Z,55.68
2023-04-28T05:13:18.376Z,55.68
2023-04-28T05:15:46.676Z,55.75
2023-04-28T05:18:36.107Z,55.76
2023-04-28T05:21:04.549Z,55.87
2023-04-28T05:23:34.406Z,55.88
2023-04-28T05:26:04.159Z,55.97
2023-04-28T05:28:33.307Z,56.05
2023-04-28T05:31:02.790Z,55.98
2023-04-28T05:33:31.690Z,55.89
2023-04-28T05:36:00.173Z,56.18
2023-04-28T05:38:28.496Z,56.11
2023-04-28T05:40:56.939Z,56.10
2023-04-28T05:43:25.213Z,56.08
2023-04-28T05:45:55.071Z,56.05
2023-04-28T05:48:23.573Z,56.16
2023-04-28T05:50:51.837Z,56.15
2023-04-28T05:53:20.161Z,56.32
2023-04-28T05:55:49.042Z,56.08
2023-04-28T05:58:18.000Z,56.05
2023-04-28T06:00:47.630Z,56.13
2023-04-28T06:03:19.141Z,56.15
2023-04-28T06:05:48.367Z,56.17
2023-04-28T06:08:16.939Z,56.04
2023-04-28T06:10:45.269Z,55.90
2023-04-28T06:13:14.606Z,56.04
2023-04-28T06:15:43.445Z,55.91
2023-04-28T06:18:11.993Z,55.89
2023-04-28T06:20:40.063Z,55.87
2023-04-28T06:23:09.547Z,55.82
2023-04-28T06:25:44.591Z,55.81
2023-04-28T06:28:14.191Z,55.72
2023-04-28T06:30:42.288Z,55.69
2023-04-28T06:33:10.839Z,55.65
2023-04-28T06:35:40.649Z,55.45
2023-04-28T06:38:08.753Z,55.58
2023-04-28T06:40:41.108Z,55.59
2023-04-28T06:43:09.951Z,55.42
2023-04-28T06:46:01.694Z,55.29
2023-04-28T06:48:30.215Z,55.21
2023-04-28T06:50:58.277Z,55.10
2023-04-28T06:53:26.320Z,55.13
2023-04-28T06:55:54.692Z,54.97
2023-04-28T06:58:23.118Z,54.86
2023-04-28T07:00:51.577Z,54.61
2023-04-28T07:03:20.030Z,54.67
2023-04-28T07:05:48.743Z,54.72
2023-04-28T07:08:17.782Z,54.48
2023-04-28T07:10:45.799Z,54.43
2023-04-28T07:13:14.151Z,54.42
2023-04-28T07:15:42.454Z,54.09
2023-04-28T07:18:10.634Z,54.06
2023-04-28T07:20:38.711Z,53.98
2023-04-28T07:23:07.177Z,53.72
2023-04-28T07:25:36.484Z,53.51
2023-04-28T07:28:05.868Z,53.44
2023-04-28T07:30:34.928Z,53.34
2023-04-28T07:33:03.416Z,53.14
2023-04-28T07:35:31.677Z,52.92
2023-04-28T07:37:59.984Z,52.83
2023-04-28T07:40:28.252Z,52.85
2023-04-28T07:42:56.297Z,52.71
2023-04-28T07:45:24.407Z,52.69
2023-04-28T07:47:52.530Z,52.55
2023-04-28T07:50:21.133Z,52.66
2023-04-28T07:52:49.387Z,52.55
2023-04-28T07:55:17.515Z,52.52
2023-04-28T07:57:45.955Z,52.48
2023-04-28T08:00:14.988Z,52.32
2023-04-28T08:02:43.196Z,52.40
2023-04-28T08:05:12.115Z,52.14
2023-04-28T08:07:40.648Z,51.97
2023-04-28T08:10:10.742Z,51.90
2023-04-28T08:12:40.921Z,51.66
2023-04-28T08:15:10.414Z,51.72
2023-04-28T08:17:39.126Z,51.65
2023-04-28T08:20:08.031Z,51.47
2023-04-28T08:22:36.422Z,51.50
2023-04-28T08:25:04.912Z,51.38
2023-04-28T08:27:34.231Z,51.36
2023-04-28T08:30:02.806Z,51.26
2023-04-28T08:32:31.137Z,51.13
2023-04-28T08:34:59.277Z,51.28
2023-04-28T08:37:28.123Z,51.10
2023-04-28T08:40:02.281Z,50.97
2023-04-28T08:42:32.130Z,50.94
2023-04-28T08:45:00.272Z,50.75
2023-04-28T08:47:41.542Z,50.63
2023-04-28T08:50:10.256Z,50.50
2023-04-28T08:52:39.615Z,50.42
2023-04-28T08:55:10.563Z,50.21
2023-04-28T08:57:59.183Z,50.00
2023-04-28T09:00:27.391Z,50.05
2023-04-28T09:02:55.850Z,49.92
2023-04-28T09:05:24.325Z,49.89
2023-04-28T09:07:53.814Z,49.82
2023-04-28T09:10:26.677Z,49.72
2023-04-28T09:12:56.266Z,49.60
2023-04-28T09:15:33.861Z,49.55
2023-04-28T09:18:08.185Z,49.63
2023-04-28T09:20:37.262Z,49.36
2023-04-28T09:23:20.488Z,49.01
2023-04-28T09:25:59.312Z,48.81
2023-04-28T09:28:29.205Z,48.80
2023-04-28T09:30:57.440Z,48.67
2023-04-28T09:33:26.009Z,48.61
2023-04-28T09:35:54.980Z,48.52
2023-04-28T09:38:23.701Z,48.32
2023-04-28T09:40:59.872Z,48.24
2023-04-28T09:43:33.335Z,48.11
2023-04-28T09:46:06.489Z,48.14
2023-04-28T09:48:38.123Z,48.14
2023-04-28T09:51:08.165Z,48.05
2023-04-28T09:53:36.925Z,48.11
2023-04-28T09:56:05.506Z,48.10
2023-04-28T09:58:40.404Z,47.82
2023-04-28T10:01:11.752Z,47.66
2023-04-28T10:03:43.727Z,47.56
2023-04-28T10:06:11.920Z,47.39
2023-04-28T10:08:41.522Z,47.30
2023-04-28T10:11:10.758Z,47.25
2023-04-28T10:13:39.231Z,46.89
2023-04-28T10:16:08.284Z,46.97
2023-04-28T10:18:39.180Z,47.12
2023-04-28T10:21:08.485Z,47.10
2023-04-28T10:24:05.192Z,46.96
2023-04-28T10:27:09.392Z,46.90
2023-04-28T10:29:38.296Z,46.88
2023-04-28T10:32:19.876Z,46.93
2023-04-28T10:34:48.529Z,46.83
2023-04-28T10:37:18.513Z,46.89
2023-04-28T10:40:36.069Z,46.77
2023-04-28T10:43:05.132Z,46.66
2023-04-28T10:45:57.573Z,46.57
2023-04-28T10:48:29.555Z,46.41
2023-04-28T10:51:04.242Z,46.53
2023-04-28T10:53:52.062Z,46.34
2023-04-28T10:56:25.451Z,46.27
2023-04-28T10:59:00.524Z,46.40
2023-04-28T11:01:32.193Z,46.23
2023-04-28T11:04:18.278Z,46.16
2023-04-28T11:06:48.113Z,46.09
2023-04-28T11:09:16.211Z,45.88
2023-04-28T11:11:59.703Z,45.77
2023-04-28T11:14:33.807Z,45.70
2023-04-28T11:17:07.134Z,45.75
2023-04-28T11:19:35.185Z,45.84
2023-04-28T11:22:23.725Z,45.60
2023-04-28T11:24:59.932Z,45.57
2023-04-28T11:27:30.413Z,45.41
2023-04-28T11:29:59.870Z,45.27
2023-04-28T11:32:29.097Z,45.13
2023-04-28T11:34:57.433Z,45.07
2023-04-28T11:37:25.866Z,45.17
2023-04-28T11:39:54.300Z,44.93
2023-04-28T11:42:22.728Z,44.87
2023-04-28T11:44:55.026Z,44.89
2023-04-28T11:47:34.472Z,44.79
2023-04-28T11:50:03.430Z,44.75
2023-04-28T11:52:31.691Z,44.86
2023-04-28T11:55:02.557Z,45.20
2023-04-28T11:57:30.787Z,45.27
2023-04-28T12:00:20.036Z,45.73
2023-04-28T12:02:48.926Z,46.03
2023-04-28T12:05:17.398Z,46.41
2023-04-28T12:07:46.056Z,46.61
2023-04-28T12:10:19.057Z,46.82
2023-04-28T12:12:52.682Z,46.76
2023-04-28T12:15:22.943Z,47.08
2023-04-28T12:17:51.904Z,47.41
2023-04-28T12:20:35.361Z,47.54
2023-04-28T12:23:03.894Z,47.78
2023-04-28T12:25:34.117Z,47.84
2023-04-28T12:28:04.765Z,47.89
2023-04-28T12:30:35.332Z,48.00
2023-04-28T12:33:04.358Z,48.36
2023-04-28T12:35:33.341Z,48.37
2023-04-28T12:38:01.504Z,48.48
2023-04-28T12:40:29.749Z,48.36
2023-04-28T12:42:57.964Z,48.25
2023-04-28T12:45:26.284Z,48.22
2023-04-28T12:47:55.613Z,48.46
2023-04-28T12:50:25.801Z,48.56
2023-04-28T12:52:53.869Z,48.72
2023-04-28T12:55:21.937Z,49.00
2023-04-28T12:57:50.243Z,48.97
2023-04-28T13:00:21.382Z,49.00
2023-04-28T13:02:51.468Z,49.35
2023-04-28T13:05:20.203Z,49.59
2023-04-28T13:07:50.857Z,49.60
2023-04-28T13:10:19.273Z,49.59
2023-04-28T13:12:47.502Z,49.42
2023-04-28T13:15:15.942Z,49.41
2023-04-28T13:17:46.426Z,49.20
2023-04-28T13:20:14.652Z,49.01
2023-04-28T13:22:42.963Z,49.11
2023-04-28T13:25:11.770Z,49.28
2023-04-28T13:27:41.917Z,49.14
2023-04-28T13:30:12.214Z,49.09
2023-04-28T13:32:40.732Z,49.30
2023-04-28T13:35:09.682Z,49.62
2023-04-28T13:37:42.794Z,49.79
2023-04-28T13:40:11.867Z,49.82
2023-04-28T13:42:40.165Z,49.80
2023-04-28T13:45:08.647Z,49.85
2023-04-28T13:47:36.728Z,49.96
2023-04-28T13:50:05.215Z,50.00
2023-04-28T13:52:33.307Z,49.93
2023-04-28T13:55:01.441Z,49.90
2023-04-28T13:57:29.748Z,49.96
2023-04-28T13:59:57.905Z,50.02
2023-04-28T14:02:27.522Z,49.89
2023-04-28T14:04:56.023Z,49.77
2023-04-28T14:07:24.272Z,49.53
2023-04-28T14:09:52.383Z,49.71
2023-04-28T14:12:20.596Z,49.78
2023-04-28T14:14:49.581Z,49.54
2023-04-28T14:17:17.856Z,49.37
2023-04-28T14:19:46.841Z,49.31
2023-04-28T14:22:15.203Z,49.18
2023-04-28T14:24:43.696Z,49.03
2023-04-28T14:27:11.771Z,48.78
2023-04-28T14:29:40.172Z,48.61
2023-04-28T14:32:08.305Z,48.31
2023-04-28T14:34:36.606Z,48.13
2023-04-28T14:37:04.761Z,47.81
2023-04-28T14:39:32.890Z,47.62
2023-04-28T14:42:00.962Z,47.49
2023-04-28T14:44:29.096Z,47.35
2023-04-28T14:46:57.237Z,47.01
2023-04-28T14:49:27.585Z,46.78
2023-04-28T14:51:55.731Z,46.83
2023-04-28T14:54:23.964Z,46.71
2023-04-28T14:56:52.031Z,46.53
2023-04-28T14:59:20.690Z,46.23
2023-04-28T15:01:50.810Z,46.40
2023-04-28T15:04:19.570Z,46.22
2023-04-28T15:06:48.172Z,45.97
2023-04-28T15:09:16.320Z,45.90
2023-04-28T15:11:44.333Z,45.73
2023-04-28T15:14:12.435Z,45.66
2023-04-28T15:16:40.892Z,45.42
2023-04-28T15:19:08.998Z,45.55
2023-04-28T15:21:37.421Z,45.32
2023-04-28T15:24:05.855Z,45.14
2023-04-28T15:26:33.883Z,44.85
2023-04-28T15:29:02.319Z,44.87
2023-04-28T15:31:30.518Z,44.78
2023-04-28T15:33:58.946Z,44.66
2023-04-28T15:36:27.075Z,44.54
2023-04-28T15:38:56.316Z,44.49
2023-04-28T15:41:25.096Z,44.51
2023-04-28T15:43:53.434Z,44.66
2023-04-28T15:46:21.784Z,44.69
2023-04-28T15:48:50.094Z,44.62
2023-04-28T15:51:18.751Z,44.77
2023-04-28T15:53:46.815Z,44.70
2023-04-28T15:56:15.079Z,44.79
2023-04-28T15:58:43.803Z,44.74
2023-04-28T16:01:11.860Z,44.69
2023-04-28T16:03:40.491Z,44.52
2023-04-28T16:06:09.565Z,44.45
2023-04-28T16:08:37.830Z,44.46
2023-04-28T16:11:06.087Z,44.29
2023-04-28T16:13:37.155Z,44.22
2023-04-28T16:16:07.636Z,44.25
2023-04-28T16:18:36.879Z,44.01
2023-04-28T16:21:05.155Z,44.15
2023-04-28T16:23:33.559Z,44.26
2023-04-28T16:26:01.651Z,44.10
2023-04-28T16:28:29.774Z,44.25
2023-04-28T16:30:57.884Z,44.48
2023-04-28T16:33:25.954Z,44.48
2023-04-28T16:35:56.067Z,44.80
2023-04-28T16:38:24.361Z,44.80
2023-04-28T16:40:52.626Z,44.97
2023-04-28T16:43:21.253Z,45.02
2023-04-28T16:45:49.677Z,45.10
2023-04-28T16:48:18.660Z,45.16
2023-04-28T16:50:46.828Z,45.22
2023-04-28T16:53:14.969Z,45.16
2023-04-28T16:55:43.264Z,45.28
2023-04-28T16:58:11.737Z,45.33
2023-04-28T17:00:39.811Z,45.22
2023-04-28T17:03:08.104Z,45.33
2023-04-28T17:05:36.707Z,45.27
2023-04-28T17:08:04.877Z,45.30
2023-04-28T17:10:33.060Z,45.34
2023-04-28T17:13:01.380Z,45.49
2023-04-28T17:15:29.980Z,45.35
2023-04-28T17:17:58.148Z,45.45
2023-04-28T17:20:26.388Z,45.38
2023-04-28T17:22:54.816Z,45.38
2023-04-28T17:25:24.047Z,45.38
2023-04-28T17:27:52.276Z,45.40
2023-04-28T17:30:20.509Z,45.41
2023-04-28T17:32:48.652Z,45.52
2023-04-28T17:35:16.813Z,45.43
2023-04-28T17:37:45.007Z,45.63
2023-04-28T17:40:13.405Z,45.67
2023-04-28T17:42:41.807Z,45.61
2023-04-28T17:45:10.939Z,45.67
2023-04-28T17:47:39.181Z,45.86
2023-04-28T17:50:07.986Z,45.78
2023-04-28T17:52:36.513Z,45.82
2023-04-28T17:55:05.124Z,45.80
2023-04-28T17:57:33.391Z,45.93
2023-04-28T18:00:01.742Z,45.99
2023-04-28T18:02:40.109Z,46.08
2023-04-28T18:05:09.086Z,46.28
2023-04-28T18:07:37.849Z,46.30
2023-04-28T18:10:06.300Z,46.46
2023-04-28T18:12:34.620Z,46.66
2023-04-28T18:15:03.019Z,46.76
2023-04-28T18:17:31.576Z,46.73
2023-04-28T18:20:00.004Z,46.99
2023-04-28T18:22:28.298Z,47.06
2023-04-28T18:24:57.745Z,47.14
2023-04-28T18:27:26.060Z,47.27
2023-04-28T18:29:54.138Z,47.32
2023-04-28T18:32:22.574Z,47.44
2023-04-28T18:34:50.718Z,47.57
2023-04-28T18:37:19.089Z,47.67
2023-04-28T18:39:47.453Z,47.77
2023-04-28T18:42:15.445Z,47.89
2023-04-28T18:44:43.514Z,48.07
2023-04-28T18:47:12.899Z,48.06
2023-04-28T18:49:41.058Z,48.18
2023-04-28T18:52:09.082Z,48.22
2023-04-28T18:54:37.535Z,48.42
2023-04-28T18:57:06.728Z,48.50
2023-04-28T18:59:34.898Z,48.59
2023-04-28T19:02:03.456Z,48.72
2023-04-28T19:04:31.554Z,48.89
2023-04-28T19:06:59.669Z,48.94
2023-04-28T19:09:28.016Z,49.04
2023-04-28T19:11:56.788Z,49.05
2023-04-28T19:14:25.082Z,49.23
2023-04-28T19:16:53.464Z,49.39
2023-04-28T19:19:21.700Z,49.39
2023-04-28T19:21:50.957Z,49.49
2023-04-28T19:24:19.310Z,49.60
2023-04-28T19:26:47.376Z,49.79
2023-04-28T19:29:17.394Z,49.81
2023-04-28T19:31:45.891Z,49.84
2023-04-28T19:34:14.175Z,49.94
2023-04-28T19:36:42.431Z,50.09
2023-04-28T19:39:10.428Z,50.27
2023-04-28T19:41:38.436Z,50.35
2023-04-28T19:44:06.465Z,50.45
2023-04-28T19:46:34.631Z,50.42
2023-04-28T19:49:03.653Z,50.53
2023-04-28T19:51:31.741Z,50.58
2023-04-28T19:53:59.953Z,50.85
2023-04-28T19:56:28.436Z,50.84
2023-04-28T19:58:56.454Z,50.99
2023-04-28T20:01:24.691Z,51.06
2023-04-28T20:03:54.299Z,50.94
2023-04-28T20:06:22.526Z,51.29
2023-04-28T20:08:51.133Z,51.33
2023-04-28T20:11:19.741Z,51.36
2023-04-28T20:13:48.473Z,51.49
2023-04-28T20:16:17.339Z,51.52
2023-04-28T20:18:45.970Z,51.59
2023-04-28T20:21:14.087Z,51.60
2023-04-28T20:23:42.373Z,51.58
2023-04-28T20:26:16.627Z,51.65
2023-04-28T20:28:46.777Z,51.69
2023-04-28T20:31:15.471Z,51.76
2023-04-28T20:33:43.605Z,51.88
2023-04-28T20:36:13.050Z,52.08
2023-04-28T20:38:43.484Z,52.02
2023-04-28T20:41:12.266Z,52.17
2023-04-28T20:43:41.104Z,52.29
2023-04-28T20:46:10.409Z,52.32
2023-04-28T20:48:38.620Z,52.48
2023-04-28T20:51:07.612Z,52.59
2023-04-28T20:53:35.749Z,52.63
2023-04-28T20:56:04.240Z,52.69
2023-04-28T20:58:32.398Z,52.69
2023-04-28T21:01:01.487Z,52.75
2023-04-28T21:03:30.835Z,52.77
2023-04-28T21:05:59.125Z,52.90
2023-04-28T21:08:29.421Z,52.94
2023-04-28T21:10:57.450Z,52.98
2023-04-28T21:13:25.516Z,53.14
2023-04-28T21:15:53.947Z,53.24
2023-04-28T21:18:22.008Z,53.33
2023-04-28T21:20:51.249Z,53.43
2023-04-28T21:23:19.810Z,53.43
2023-04-28T21:25:47.958Z,53.55
2023-04-28T21:28:16.458Z,53.66
2023-04-28T21:30:44.498Z,53.74
2023-04-28T21:33:12.669Z,53.80
2023-04-28T21:35:40.748Z,53.97
2023-04-28T21:38:10.992Z,54.03
2023-04-28T21:40:39.370Z,54.07
2023-04-28T21:43:08.301Z,54.23
2023-04-28T21:45:36.462Z,54.22
2023-04-28T21:48:04.974Z,54.24
2023-04-28T21:50:33.095Z,54.37
2023-04-28T21:53:01.149Z,54.44
2023-04-28T21:55:29.309Z,54.55
2023-04-28T21:57:59.997Z,54.67
2023-04-28T22:00:28.557Z,54.94
2023-04-28T22:02:57.892Z,54.99
2023-04-28T22:05:26.221Z,55.08
2023-04-28T22:07:54.272Z,55.15
2023-04-28T22:10:22.914Z,55.21
2023-04-28T22:12:51.023Z,55.36
2023-04-28T22:15:19.254Z,55.28
2023-04-28T22:17:47.799Z,55.50
2023-04-28T22:20:16.067Z,55.52
2023-04-28T22:22:44.123Z,55.57
2023-04-28T22:25:12.442Z,55.66
2023-04-28T22:27:40.696Z,55.57
2023-04-28T22:30:10.047Z,55.70
2023-04-28T22:32:38.390Z,55.66
2023-04-28T22:35:07.124Z,55.58
2023-04-28T22:37:35.570Z,55.56
2023-04-28T22:40:04.734Z,55.60
2023-04-28T22:42:42.837Z,55.75
2023-04-28T22:45:11.915Z,55.82
2023-04-28T22:47:41.180Z,55.83
2023-04-28T22:50:10.908Z,55.88
2023-04-28T22:52:39.311Z,55.71
2023-04-28T22:55:07.919Z,55.69
2023-04-28T22:57:36.582Z,55.63
2023-04-28T23:00:06.030Z,55.60
2023-04-28T23:02:34.240Z,55.43
2023-04-28T23:05:02.496Z,55.47
2023-04-28T23:07:30.676Z,55.46
2023-04-28T23:09:58.757Z,55.39
2023-04-28T23:12:26.944Z,55.38
2023-04-28T23:14:55.777Z,55.35
2023-04-28T23:17:24.633Z,55.35
2023-04-28T23:19:52.873Z,55.49
2023-04-28T23:22:21.413Z,55.41
2023-04-28T23:24:49.447Z,55.32
2023-04-28T23:27:17.859Z,55.25
2023-04-28T23:29:45.942Z,55.35
2023-04-28T23:32:13.960Z,55.27
2023-04-28T23:34:42.848Z,55.32
2023-04-28T23:37:10.947Z,55.12
2023-04-28T23:39:38.987Z,55.13
2023-04-28T23:42:07.528Z,55.06
2023-04-28T23:44:35.793Z,54.95
2023-04-28T23:47:03.840Z,54.92
2023-04-28T23:49:31.896Z,54.77
2023-04-28T23:51:59.928Z,54.60
2023-04-28T23:54:27.968Z,54.67
2023-04-28T23:56:56.994Z,54.54
2023-04-28T23:59:25.787Z,54.54
